sensor_id;sensor_type;location;lat;lon;timestamp;temperature;humidity
13697;DHT22;6920;50.080;8.226;2023-03-26T00:00:47;9.00;99.90
13697;DHT22;6920;50.080;8.226;2023-03-26T00:03:16;8.90;99.90
13697;DHT22;6920;50.080;8.226;2023-03-26T00:05:45;9.00;99.90
13697;DHT22;6920;50.080;8.226;2023-03-26T00:08:14;8.90;99.90
13697;DHT22;6920;50.080;8.226;2023-03-26T00:10:43;8.90;99.90
13697;DHT22;6920;50.080;8.226;2023-03-26T00:15:38;8.90;99.90
13697;DHT22;6920;50.080;8.226;2023-03-26T00:18:06;8.90;99.90
13697;DHT22;6920;50.080;8.226;2023-03-26T00:20:34;8.80;99.90
13697;DHT22;6920;50.080;8.226;2023-03-26T00:23:03;8.80;99.90
13697;DHT22;6920;50.080;8.226;2023-03-26T00:25:32;8.70;99.90
13697;DHT22;6920;50.080;8.226;2023-03-26T00:27:59;8.70;99.90
13697;DHT22;6920;50.080;8.226;2023-03-26T00:30:28;8.70;99.90
13697;DHT22;6920;50.080;8.226;2023-03-26T00:32:55;8.60;99.90
13697;DHT22;6920;50.080;8.226;2023-03-26T00:35:23;8.60;99.90
13697;DHT22;6920;50.080;8.226;2023-03-26T00:37:50;8.40;99.90
13697;DHT22;6920;50.080;8.226;2023-03-26T00:42:47;8.60;99.90
13697;DHT22;6920;50.080;8.226;2023-03-26T00:47:46;7.30;99.90
13697;DHT22;6920;50.080;8.226;2023-03-26T00:50:13;8.50;99.90
13697;DHT22;6920;50.080;8.226;2023-03-26T00:52:41;8.50;99.90
13697;DHT22;6920;50.080;8.226;2023-03-26T00:55:09;8.40;99.90
13697;DHT22;6920;50.080;8.226;2023-03-26T00:57:37;8.50;99.90
13697;DHT22;6920;50.080;8.226;2023-03-26T01:00:09;8.50;99.90
13697;DHT22;6920;50.080;8.226;2023-03-26T01:02:38;8.40;99.90
13697;DHT22;6920;50.080;8.226;2023-03-26T01:05:37;8.50;99.90
13697;DHT22;6920;50.080;8.226;2023-03-26T01:08:15;8.40;99.90
13697;DHT22;6920;50.080;8.226;2023-03-26T01:10:44;8.40;99.90
13697;DHT22;6920;50.080;8.226;2023-03-26T01:13:16;8.40;99.90
13697;DHT22;6920;50.080;8.226;2023-03-26T01:15:45;8.30;99.90
13697;DHT22;6920;50.080;8.226;2023-03-26T01:18:17;8.30;99.90
13697;DHT22;6920;50.080;8.226;2023-03-26T01:20:47;8.30;99.90
13697;DHT22;6920;50.080;8.226;2023-03-26T01:23:20;8.30;99.90
13697;DHT22;6920;50.080;8.226;2023-03-26T01:25:53;8.30;99.90
13697;DHT22;6920;50.080;8.226;2023-03-26T01:28:23;8.30;99.90
13697;DHT22;6920;50.080;8.226;2023-03-26T01:30:59;8.10;99.90
13697;DHT22;6920;50.080;8.226;2023-03-26T01:33:34;8.10;99.90
13697;DHT22;6920;50.080;8.226;2023-03-26T01:36:07;8.10;99.90
13697;DHT22;6920;50.080;8.226;2023-03-26T01:38:41;8.10;99.90
13697;DHT22;6920;50.080;8.226;2023-03-26T01:41:18;8.10;99.90
13697;DHT22;6920;50.080;8.226;2023-03-26T01:43:52;8.00;99.90
13697;DHT22;6920;50.080;8.226;2023-03-26T01:46:21;8.00;99.90
13697;DHT22;6920;50.080;8.226;2023-03-26T01:48:50;8.00;99.90
13697;DHT22;6920;50.080;8.226;2023-03-26T01:51:27;8.00;99.90
13697;DHT22;6920;50.080;8.226;2023-03-26T01:53:55;8.10;99.90
13697;DHT22;6920;50.080;8.226;2023-03-26T01:56:28;8.10;99.90
13697;DHT22;6920;50.080;8.226;2023-03-26T01:59:08;8.20;99.90
13697;DHT22;6920;50.080;8.226;2023-03-26T02:01:43;8.20;99.90
13697;DHT22;6920;50.080;8.226;2023-03-26T02:04:20;8.20;99.90
13697;DHT22;6920;50.080;8.226;2023-03-26T02:06:53;8.30;99.90
13697;DHT22;6920;50.080;8.226;2023-03-26T02:09:29;8.30;99.90
13697;DHT22;6920;50.080;8.226;2023-03-26T02:11:59;8.20;99.90
13697;DHT22;6920;50.080;8.226;2023-03-26T02:14:28;8.20;99.90
13697;DHT22;6920;50.080;8.226;2023-03-26T02:16:56;8.20;99.90
13697;DHT22;6920;50.080;8.226;2023-03-26T02:19:23;8.20;99.90
13697;DHT22;6920;50.080;8.226;2023-03-26T02:21:50;8.40;99.90
13697;DHT22;6920;50.080;8.226;2023-03-26T02:24:17;8.40;99.90
13697;DHT22;6920;50.080;8.226;2023-03-26T02:26:45;8.40;99.90
13697;DHT22;6920;50.080;8.226;2023-03-26T02:29:14;8.40;99.90
13697;DHT22;6920;50.080;8.226;2023-03-26T02:31:44;8.50;99.90
13697;DHT22;6920;50.080;8.226;2023-03-26T02:34:12;8.40;99.90
13697;DHT22;6920;50.080;8.226;2023-03-26T02:36:40;8.40;99.90
13697;DHT22;6920;50.080;8.226;2023-03-26T02:39:08;8.40;99.90
13697;DHT22;6920;50.080;8.226;2023-03-26T02:41:35;8.30;99.90
13697;DHT22;6920;50.080;8.226;2023-03-26T02:44:03;8.40;99.90
13697;DHT22;6920;50.080;8.226;2023-03-26T02:46:32;8.40;99.90
13697;DHT22;6920;50.080;8.226;2023-03-26T02:51:27;8.40;99.90
13697;DHT22;6920;50.080;8.226;2023-03-26T02:53:54;8.40;99.90
13697;DHT22;6920;50.080;8.226;2023-03-26T02:56:22;8.30;99.90
13697;DHT22;6920;50.080;8.226;2023-03-26T02:58:49;8.40;99.90
13697;DHT22;6920;50.080;8.226;2023-03-26T03:01:16;8.40;99.90
13697;DHT22;6920;50.080;8.226;2023-03-26T03:03:45;8.30;99.90
13697;DHT22;6920;50.080;8.226;2023-03-26T03:06:13;8.40;99.90
13697;DHT22;6920;50.080;8.226;2023-03-26T03:08:42;8.40;99.90
13697;DHT22;6920;50.080;8.226;2023-03-26T03:11:12;8.40;99.90
13697;DHT22;6920;50.080;8.226;2023-03-26T03:13:40;8.40;99.90
13697;DHT22;6920;50.080;8.226;2023-03-26T03:16:07;8.30;99.90
13697;DHT22;6920;50.080;8.226;2023-03-26T03:18:35;8.30;99.90
13697;DHT22;6920;50.080;8.226;2023-03-26T03:21:04;8.40;99.90
13697;DHT22;6920;50.080;8.226;2023-03-26T03:23:31;8.40;99.90
13697;DHT22;6920;50.080;8.226;2023-03-26T03:25:59;8.40;99.90
13697;DHT22;6920;50.080;8.226;2023-03-26T03:28:27;8.30;99.90
13697;DHT22;6920;50.080;8.226;2023-03-26T03:30:55;8.30;99.90
13697;DHT22;6920;50.080;8.226;2023-03-26T03:33:23;8.40;99.90
13697;DHT22;6920;50.080;8.226;2023-03-26T03:35:51;8.50;99.90
13697;DHT22;6920;50.080;8.226;2023-03-26T03:38:19;8.50;99.90
13697;DHT22;6920;50.080;8.226;2023-03-26T03:40:46;8.60;99.90
13697;DHT22;6920;50.080;8.226;2023-03-26T03:43:13;8.60;99.90
13697;DHT22;6920;50.080;8.226;2023-03-26T03:45:41;8.40;99.90
13697;DHT22;6920;50.080;8.226;2023-03-26T03:48:08;8.50;99.90
13697;DHT22;6920;50.080;8.226;2023-03-26T03:50:35;8.40;99.90
13697;DHT22;6920;50.080;8.226;2023-03-26T03:53:02;8.50;99.90
13697;DHT22;6920;50.080;8.226;2023-03-26T03:55:31;8.40;99.90
13697;DHT22;6920;50.080;8.226;2023-03-26T03:57:58;8.40;99.90
13697;DHT22;6920;50.080;8.226;2023-03-26T04:00:26;8.40;99.90
13697;DHT22;6920;50.080;8.226;2023-03-26T04:05:21;8.40;99.90
13697;DHT22;6920;50.080;8.226;2023-03-26T04:07:48;8.30;99.90
13697;DHT22;6920;50.080;8.226;2023-03-26T04:10:15;8.40;99.90
13697;DHT22;6920;50.080;8.226;2023-03-26T04:12:43;8.40;99.90
13697;DHT22;6920;50.080;8.226;2023-03-26T04:15:11;8.40;99.90
13697;DHT22;6920;50.080;8.226;2023-03-26T04:17:38;8.40;99.90
13697;DHT22;6920;50.080;8.226;2023-03-26T04:20:08;8.40;99.90
13697;DHT22;6920;50.080;8.226;2023-03-26T04:22:40;8.50;99.90
13697;DHT22;6920;50.080;8.226;2023-03-26T04:25:08;8.50;99.90
13697;DHT22;6920;50.080;8.226;2023-03-26T04:27:36;8.50;99.90
13697;DHT22;6920;50.080;8.226;2023-03-26T04:30:06;8.40;99.90
13697;DHT22;6920;50.080;8.226;2023-03-26T04:32:34;8.40;99.90
13697;DHT22;6920;50.080;8.226;2023-03-26T04:35:04;8.30;99.90
13697;DHT22;6920;50.080;8.226;2023-03-26T04:37:34;8.00;99.90
13697;DHT22;6920;50.080;8.226;2023-03-26T04:40:05;8.00;99.90
13697;DHT22;6920;50.080;8.226;2023-03-26T04:45:04;8.20;99.90
13697;DHT22;6920;50.080;8.226;2023-03-26T04:47:32;8.30;99.90
13697;DHT22;6920;50.080;8.226;2023-03-26T04:50:01;8.40;99.90
13697;DHT22;6920;50.080;8.226;2023-03-26T04:52:29;8.40;99.90
13697;DHT22;6920;50.080;8.226;2023-03-26T04:54:56;8.40;99.90
13697;DHT22;6920;50.080;8.226;2023-03-26T04:57:27;8.30;99.90
13697;DHT22;6920;50.080;8.226;2023-03-26T04:59:55;8.10;99.90
13697;DHT22;6920;50.080;8.226;2023-03-26T05:02:23;8.10;99.90
13697;DHT22;6920;50.080;8.226;2023-03-26T05:04:51;8.10;99.90
13697;DHT22;6920;50.080;8.226;2023-03-26T05:07:19;8.00;99.90
13697;DHT22;6920;50.080;8.226;2023-03-26T05:09:47;7.90;99.90
13697;DHT22;6920;50.080;8.226;2023-03-26T05:12:14;7.90;99.90
13697;DHT22;6920;50.080;8.226;2023-03-26T05:14:41;7.80;99.90
13697;DHT22;6920;50.080;8.226;2023-03-26T05:17:13;7.80;99.90
13697;DHT22;6920;50.080;8.226;2023-03-26T05:19:44;8.00;99.90
13697;DHT22;6920;50.080;8.226;2023-03-26T05:22:12;8.00;99.90
13697;DHT22;6920;50.080;8.226;2023-03-26T05:24:39;8.00;99.90
13697;DHT22;6920;50.080;8.226;2023-03-26T05:27:06;8.00;99.90
13697;DHT22;6920;50.080;8.226;2023-03-26T05:34:28;8.00;99.90
13697;DHT22;6920;50.080;8.226;2023-03-26T05:36:57;8.00;99.90
13697;DHT22;6920;50.080;8.226;2023-03-26T05:39:24;8.10;99.90
13697;DHT22;6920;50.080;8.226;2023-03-26T05:41:52;8.20;99.90
13697;DHT22;6920;50.080;8.226;2023-03-26T05:44:19;8.00;99.90
13697;DHT22;6920;50.080;8.226;2023-03-26T05:46:46;8.00;99.90
13697;DHT22;6920;50.080;8.226;2023-03-26T05:49:13;7.80;99.90
13697;DHT22;6920;50.080;8.226;2023-03-26T05:54:09;8.00;99.90
13697;DHT22;6920;50.080;8.226;2023-03-26T05:56:36;8.00;99.90
13697;DHT22;6920;50.080;8.226;2023-03-26T05:59:03;8.00;99.90
13697;DHT22;6920;50.080;8.226;2023-03-26T06:01:31;8.00;99.90
13697;DHT22;6920;50.080;8.226;2023-03-26T06:03:58;8.00;99.90
13697;DHT22;6920;50.080;8.226;2023-03-26T06:06:25;8.00;99.90
13697;DHT22;6920;50.080;8.226;2023-03-26T06:08:52;8.00;99.90
13697;DHT22;6920;50.080;8.226;2023-03-26T06:11:21;8.00;99.90
13697;DHT22;6920;50.080;8.226;2023-03-26T06:13:48;8.00;99.90
13697;DHT22;6920;50.080;8.226;2023-03-26T06:16:15;8.10;99.90
13697;DHT22;6920;50.080;8.226;2023-03-26T06:18:43;8.10;99.90
13697;DHT22;6920;50.080;8.226;2023-03-26T06:21:10;8.10;99.90
13697;DHT22;6920;50.080;8.226;2023-03-26T06:23:37;8.00;99.90
13697;DHT22;6920;50.080;8.226;2023-03-26T06:26:04;8.00;99.90
13697;DHT22;6920;50.080;8.226;2023-03-26T06:28:33;7.90;99.90
13697;DHT22;6920;50.080;8.226;2023-03-26T06:31:01;8.00;99.90
13697;DHT22;6920;50.080;8.226;2023-03-26T06:33:28;8.10;99.90
13697;DHT22;6920;50.080;8.226;2023-03-26T06:35:55;8.20;99.90
13697;DHT22;6920;50.080;8.226;2023-03-26T06:38:23;8.10;99.90
13697;DHT22;6920;50.080;8.226;2023-03-26T06:43:19;7.90;99.90
13697;DHT22;6920;50.080;8.226;2023-03-26T06:45:50;7.80;99.90
13697;DHT22;6920;50.080;8.226;2023-03-26T06:50:46;7.80;99.90
13697;DHT22;6920;50.080;8.226;2023-03-26T06:53:13;7.90;99.90
13697;DHT22;6920;50.080;8.226;2023-03-26T06:55:40;7.90;99.90
13697;DHT22;6920;50.080;8.226;2023-03-26T06:58:10;7.90;99.90
13697;DHT22;6920;50.080;8.226;2023-03-26T07:00:37;7.80;99.90
13697;DHT22;6920;50.080;8.226;2023-03-26T07:03:06;7.80;99.90
13697;DHT22;6920;50.080;8.226;2023-03-26T07:05:33;7.90;99.90
13697;DHT22;6920;50.080;8.226;2023-03-26T07:08:00;8.10;99.90
13697;DHT22;6920;50.080;8.226;2023-03-26T07:10:27;8.00;99.90
13697;DHT22;6920;50.080;8.226;2023-03-26T07:12:54;7.90;99.90
13697;DHT22;6920;50.080;8.226;2023-03-26T07:15:21;7.90;99.90
13697;DHT22;6920;50.080;8.226;2023-03-26T07:17:48;8.00;99.90
13697;DHT22;6920;50.080;8.226;2023-03-26T07:20:17;8.00;99.90
13697;DHT22;6920;50.080;8.226;2023-03-26T07:22:45;7.90;99.90
13697;DHT22;6920;50.080;8.226;2023-03-26T07:25:13;7.90;99.90
13697;DHT22;6920;50.080;8.226;2023-03-26T07:27:46;7.90;99.90
13697;DHT22;6920;50.080;8.226;2023-03-26T07:30:23;8.00;99.90
13697;DHT22;6920;50.080;8.226;2023-03-26T07:32:54;8.00;99.90
13697;DHT22;6920;50.080;8.226;2023-03-26T07:35:29;8.00;99.90
13697;DHT22;6920;50.080;8.226;2023-03-26T07:38:11;7.90;99.90
13697;DHT22;6920;50.080;8.226;2023-03-26T07:40:51;7.90;99.90
13697;DHT22;6920;50.080;8.226;2023-03-26T07:43:32;8.00;99.90
13697;DHT22;6920;50.080;8.226;2023-03-26T07:46:04;7.90;99.90
13697;DHT22;6920;50.080;8.226;2023-03-26T07:48:38;7.80;99.90
13697;DHT22;6920;50.080;8.226;2023-03-26T07:51:10;7.90;99.90
13697;DHT22;6920;50.080;8.226;2023-03-26T07:53:37;7.90;99.90
13697;DHT22;6920;50.080;8.226;2023-03-26T07:56:10;7.90;99.90
13697;DHT22;6920;50.080;8.226;2023-03-26T07:58:56;7.90;99.90
13697;DHT22;6920;50.080;8.226;2023-03-26T08:01:37;7.90;99.90
13697;DHT22;6920;50.080;8.226;2023-03-26T08:07:29;8.00;99.90
13697;DHT22;6920;50.080;8.226;2023-03-26T08:10:03;8.00;99.90
13697;DHT22;6920;50.080;8.226;2023-03-26T08:12:40;7.90;99.90
13697;DHT22;6920;50.080;8.226;2023-03-26T08:15:18;7.90;99.90
13697;DHT22;6920;50.080;8.226;2023-03-26T08:17:53;7.90;99.90
13697;DHT22;6920;50.080;8.226;2023-03-26T08:20:29;8.00;99.90
13697;DHT22;6920;50.080;8.226;2023-03-26T08:23:06;8.00;99.90
13697;DHT22;6920;50.080;8.226;2023-03-26T08:25:40;8.00;99.90
13697;DHT22;6920;50.080;8.226;2023-03-26T08:28:17;8.00;99.90
13697;DHT22;6920;50.080;8.226;2023-03-26T08:30:46;8.00;99.90
13697;DHT22;6920;50.080;8.226;2023-03-26T08:33:16;8.00;99.90
13697;DHT22;6920;50.080;8.226;2023-03-26T08:35:44;8.00;99.90
13697;DHT22;6920;50.080;8.226;2023-03-26T08:38:14;8.00;99.90
13697;DHT22;6920;50.080;8.226;2023-03-26T08:47:53;7.90;99.90
13697;DHT22;6920;50.080;8.226;2023-03-26T08:56:41;7.80;99.90
13697;DHT22;6920;50.080;8.226;2023-03-26T09:02:15;8.00;99.90
13697;DHT22;6920;50.080;8.226;2023-03-26T09:14:22;8.20;99.90
13697;DHT22;6920;50.080;8.226;2023-03-26T09:23:41;8.40;99.90
13697;DHT22;6920;50.080;8.226;2023-03-26T09:26:26;8.50;99.90
13697;DHT22;6920;50.080;8.226;2023-03-26T09:32:47;8.60;99.90
13697;DHT22;6920;50.080;8.226;2023-03-26T09:35:40;8.80;99.90
13697;DHT22;6920;50.080;8.226;2023-03-26T09:38:17;8.40;99.90
13697;DHT22;6920;50.080;8.226;2023-03-26T09:40:52;8.40;99.90
13697;DHT22;6920;50.080;8.226;2023-03-26T09:43:50;8.60;99.90
13697;DHT22;6920;50.080;8.226;2023-03-26T09:46:27;8.40;99.90
13697;DHT22;6920;50.080;8.226;2023-03-26T09:55:06;8.70;99.90
13697;DHT22;6920;50.080;8.226;2023-03-26T10:00:40;9.00;99.90
13697;DHT22;6920;50.080;8.226;2023-03-26T10:03:20;8.90;99.90
13697;DHT22;6920;50.080;8.226;2023-03-26T10:06:11;9.00;99.90
13697;DHT22;6920;50.080;8.226;2023-03-26T10:09:01;9.00;99.90
13697;DHT22;6920;50.080;8.226;2023-03-26T10:11:40;9.00;99.90
13697;DHT22;6920;50.080;8.226;2023-03-26T10:14:18;8.90;99.90
13697;DHT22;6920;50.080;8.226;2023-03-26T10:16:59;8.90;99.90
13697;DHT22;6920;50.080;8.226;2023-03-26T10:19:43;8.90;99.90
13697;DHT22;6920;50.080;8.226;2023-03-26T10:22:22;9.10;99.90
13697;DHT22;6920;50.080;8.226;2023-03-26T10:25:13;9.30;99.90
13697;DHT22;6920;50.080;8.226;2023-03-26T10:27:49;9.40;99.90
13697;DHT22;6920;50.080;8.226;2023-03-26T10:30:38;9.50;99.90
13697;DHT22;6920;50.080;8.226;2023-03-26T10:33:20;9.50;99.90
13697;DHT22;6920;50.080;8.226;2023-03-26T10:38:57;9.30;99.90
13697;DHT22;6920;50.080;8.226;2023-03-26T10:41:37;9.30;99.90
13697;DHT22;6920;50.080;8.226;2023-03-26T10:47:33;9.50;99.90
13697;DHT22;6920;50.080;8.226;2023-03-26T10:50:32;9.80;99.90
13697;DHT22;6920;50.080;8.226;2023-03-26T10:53:06;10.00;99.90
13697;DHT22;6920;50.080;8.226;2023-03-26T10:55:37;10.10;99.90
13697;DHT22;6920;50.080;8.226;2023-03-26T10:58:12;10.10;99.90
13697;DHT22;6920;50.080;8.226;2023-03-26T11:00:45;10.20;99.90
13697;DHT22;6920;50.080;8.226;2023-03-26T11:03:35;10.20;99.90
13697;DHT22;6920;50.080;8.226;2023-03-26T11:06:16;10.00;99.90
13697;DHT22;6920;50.080;8.226;2023-03-26T11:08:54;10.30;99.90
13697;DHT22;6920;50.080;8.226;2023-03-26T11:11:28;10.50;99.90
13697;DHT22;6920;50.080;8.226;2023-03-26T11:14:02;10.50;99.90
13697;DHT22;6920;50.080;8.226;2023-03-26T11:16:39;10.40;99.90
13697;DHT22;6920;50.080;8.226;2023-03-26T11:19:15;10.70;99.90
13697;DHT22;6920;50.080;8.226;2023-03-26T11:21:49;10.70;99.90
13697;DHT22;6920;50.080;8.226;2023-03-26T11:24:49;10.60;99.90
13697;DHT22;6920;50.080;8.226;2023-03-26T11:27:26;10.60;99.90
13697;DHT22;6920;50.080;8.226;2023-03-26T11:30:08;10.90;99.90
13697;DHT22;6920;50.080;8.226;2023-03-26T11:32:43;10.90;99.90
13697;DHT22;6920;50.080;8.226;2023-03-26T11:35:18;10.60;99.90
13697;DHT22;6920;50.080;8.226;2023-03-26T11:37:49;10.60;99.90
13697;DHT22;6920;50.080;8.226;2023-03-26T11:40:20;10.60;99.90
13697;DHT22;6920;50.080;8.226;2023-03-26T11:42:50;11.00;99.90
13697;DHT22;6920;50.080;8.226;2023-03-26T11:45:22;11.50;99.90
13697;DHT22;6920;50.080;8.226;2023-03-26T11:47:52;12.00;99.90
13697;DHT22;6920;50.080;8.226;2023-03-26T11:50:25;12.30;99.90
13697;DHT22;6920;50.080;8.226;2023-03-26T11:52:56;12.30;99.90
13697;DHT22;6920;50.080;8.226;2023-03-26T11:55:26;12.40;99.90
13697;DHT22;6920;50.080;8.226;2023-03-26T11:57:56;12.40;99.90
13697;DHT22;6920;50.080;8.226;2023-03-26T12:00:24;12.60;99.90
13697;DHT22;6920;50.080;8.226;2023-03-26T12:02:56;12.40;99.90
13697;DHT22;6920;50.080;8.226;2023-03-26T12:05:25;12.40;99.90
13697;DHT22;6920;50.080;8.226;2023-03-26T12:07:58;12.50;99.90
13697;DHT22;6920;50.080;8.226;2023-03-26T12:10:29;12.70;99.90
13697;DHT22;6920;50.080;8.226;2023-03-26T12:13:01;12.90;99.90
13697;DHT22;6920;50.080;8.226;2023-03-26T12:15:29;12.70;99.90
13697;DHT22;6920;50.080;8.226;2023-03-26T12:17:57;12.70;99.90
13697;DHT22;6920;50.080;8.226;2023-03-26T12:20:33;12.80;99.90
13697;DHT22;6920;50.080;8.226;2023-03-26T12:23:05;12.30;99.90
13697;DHT22;6920;50.080;8.226;2023-03-26T12:25:34;12.20;99.90
13697;DHT22;6920;50.080;8.226;2023-03-26T12:28:03;12.20;99.90
13697;DHT22;6920;50.080;8.226;2023-03-26T12:30:32;12.30;99.90
13697;DHT22;6920;50.080;8.226;2023-03-26T12:33:02;11.90;99.90
13697;DHT22;6920;50.080;8.226;2023-03-26T12:35:31;12.00;99.90
13697;DHT22;6920;50.080;8.226;2023-03-26T12:38:23;11.60;99.90
13697;DHT22;6920;50.080;8.226;2023-03-26T12:41:03;11.80;99.90
13697;DHT22;6920;50.080;8.226;2023-03-26T12:43:37;11.70;99.90
13697;DHT22;6920;50.080;8.226;2023-03-26T12:46:19;12.50;99.90
13697;DHT22;6920;50.080;8.226;2023-03-26T12:48:50;13.00;99.90
13697;DHT22;6920;50.080;8.226;2023-03-26T12:51:23;13.10;99.90
13697;DHT22;6920;50.080;8.226;2023-03-26T12:54:07;13.50;99.90
13697;DHT22;6920;50.080;8.226;2023-03-26T12:56:44;13.20;99.90
13697;DHT22;6920;50.080;8.226;2023-03-26T12:59:26;13.70;99.90
13697;DHT22;6920;50.080;8.226;2023-03-26T13:02:04;14.30;99.90
13697;DHT22;6920;50.080;8.226;2023-03-26T13:04:53;14.40;99.90
13697;DHT22;6920;50.080;8.226;2023-03-26T13:07:27;14.40;99.90
13697;DHT22;6920;50.080;8.226;2023-03-26T13:10:25;14.50;99.90
13697;DHT22;6920;50.080;8.226;2023-03-26T13:13:07;14.30;99.90
13697;DHT22;6920;50.080;8.226;2023-03-26T13:15:39;14.00;99.90
13697;DHT22;6920;50.080;8.226;2023-03-26T13:18:19;13.80;99.90
13697;DHT22;6920;50.080;8.226;2023-03-26T13:20:51;13.70;99.90
13697;DHT22;6920;50.080;8.226;2023-03-26T13:23:29;13.50;99.90
13697;DHT22;6920;50.080;8.226;2023-03-26T13:26:07;13.30;99.90
13697;DHT22;6920;50.080;8.226;2023-03-26T13:28:41;13.00;99.90
13697;DHT22;6920;50.080;8.226;2023-03-26T13:31:14;12.60;99.90
13697;DHT22;6920;50.080;8.226;2023-03-26T13:33:49;12.00;99.90
13697;DHT22;6920;50.080;8.226;2023-03-26T13:36:26;12.20;99.90
13697;DHT22;6920;50.080;8.226;2023-03-26T13:39:13;12.40;99.90
13697;DHT22;6920;50.080;8.226;2023-03-26T13:42:01;12.70;99.90
13697;DHT22;6920;50.080;8.226;2023-03-26T13:44:43;12.70;99.90
13697;DHT22;6920;50.080;8.226;2023-03-26T13:47:16;12.90;99.90
13697;DHT22;6920;50.080;8.226;2023-03-26T13:49:49;13.20;99.90
13697;DHT22;6920;50.080;8.226;2023-03-26T13:52:20;13.50;99.90
13697;DHT22;6920;50.080;8.226;2023-03-26T13:54:53;13.30;99.90
13697;DHT22;6920;50.080;8.226;2023-03-26T13:57:25;13.10;99.90
13697;DHT22;6920;50.080;8.226;2023-03-26T13:59:59;13.10;99.90
13697;DHT22;6920;50.080;8.226;2023-03-26T14:02:34;13.00;99.90
13697;DHT22;6920;50.080;8.226;2023-03-26T14:05:06;13.20;99.90
13697;DHT22;6920;50.080;8.226;2023-03-26T14:07:40;13.10;99.90
13697;DHT22;6920;50.080;8.226;2023-03-26T14:10:14;13.20;99.90
13697;DHT22;6920;50.080;8.226;2023-03-26T14:12:48;13.40;99.90
13697;DHT22;6920;50.080;8.226;2023-03-26T14:15:21;13.40;99.90
13697;DHT22;6920;50.080;8.226;2023-03-26T14:17:52;13.80;99.90
13697;DHT22;6920;50.080;8.226;2023-03-26T14:23:29;13.90;99.90
13697;DHT22;6920;50.080;8.226;2023-03-26T14:26:09;13.80;99.90
13697;DHT22;6920;50.080;8.226;2023-03-26T14:29:04;14.10;99.90
13697;DHT22;6920;50.080;8.226;2023-03-26T14:31:37;14.20;99.90
13697;DHT22;6920;50.080;8.226;2023-03-26T14:34:19;14.10;99.90
13697;DHT22;6920;50.080;8.226;2023-03-26T14:40:25;14.00;99.90
13697;DHT22;6920;50.080;8.226;2023-03-26T14:42:59;13.90;99.90
13697;DHT22;6920;50.080;8.226;2023-03-26T14:48:46;14.90;99.90
13697;DHT22;6920;50.080;8.226;2023-03-26T14:54:10;14.30;99.90
13697;DHT22;6920;50.080;8.226;2023-03-26T14:56:51;14.20;99.90
13697;DHT22;6920;50.080;8.226;2023-03-26T14:59:37;14.00;99.90
13697;DHT22;6920;50.080;8.226;2023-03-26T15:06:13;14.00;99.90
13697;DHT22;6920;50.080;8.226;2023-03-26T15:11:52;13.00;99.90
13697;DHT22;6920;50.080;8.226;2023-03-26T15:24:00;12.80;99.90
13697;DHT22;6920;50.080;8.226;2023-03-26T15:26:55;11.90;99.90
13697;DHT22;6920;50.080;8.226;2023-03-26T15:36:03;9.10;99.90
13697;DHT22;6920;50.080;8.226;2023-03-26T15:41:41;8.80;99.90
13697;DHT22;6920;50.080;8.226;2023-03-26T15:44:28;8.90;99.90
13697;DHT22;6920;50.080;8.226;2023-03-26T15:47:15;9.00;99.90
13697;DHT22;6920;50.080;8.226;2023-03-26T15:52:23;9.00;99.90
13697;DHT22;6920;50.080;8.226;2023-03-26T15:54:58;8.90;99.90
13697;DHT22;6920;50.080;8.226;2023-03-26T15:57:31;9.00;99.90
13697;DHT22;6920;50.080;8.226;2023-03-26T16:00:20;8.90;99.90
13697;DHT22;6920;50.080;8.226;2023-03-26T16:03:14;9.00;99.90
13697;DHT22;6920;50.080;8.226;2023-03-26T16:08:47;9.10;99.90
13697;DHT22;6920;50.080;8.226;2023-03-26T16:14:15;9.20;99.90
13697;DHT22;6920;50.080;8.226;2023-03-26T16:17:15;9.20;99.90
13697;DHT22;6920;50.080;8.226;2023-03-26T16:22:54;9.20;99.90
13697;DHT22;6920;50.080;8.226;2023-03-26T16:25:38;9.10;99.90
13697;DHT22;6920;50.080;8.226;2023-03-26T16:28:33;9.10;99.90
13697;DHT22;6920;50.080;8.226;2023-03-26T16:34:24;9.00;99.90
13697;DHT22;6920;50.080;8.226;2023-03-26T16:36:57;9.00;99.90
13697;DHT22;6920;50.080;8.226;2023-03-26T16:42:33;9.00;99.90
13697;DHT22;6920;50.080;8.226;2023-03-26T16:45:20;9.00;99.90
13697;DHT22;6920;50.080;8.226;2023-03-26T16:48:00;8.90;99.90
13697;DHT22;6920;50.080;8.226;2023-03-26T16:55:55;8.90;99.90
13697;DHT22;6920;50.080;8.226;2023-03-26T16:58:32;8.90;99.90
13697;DHT22;6920;50.080;8.226;2023-03-26T17:01:07;9.00;99.90
13697;DHT22;6920;50.080;8.226;2023-03-26T17:11:30;9.10;99.90
13697;DHT22;6920;50.080;8.226;2023-03-26T17:14:23;9.10;99.90
13697;DHT22;6920;50.080;8.226;2023-03-26T17:24:47;9.10;99.90
13697;DHT22;6920;50.080;8.226;2023-03-26T17:27:35;9.00;99.90
13697;DHT22;6920;50.080;8.226;2023-03-26T17:30:37;9.00;99.90
13697;DHT22;6920;50.080;8.226;2023-03-26T17:33:27;8.90;99.90
13697;DHT22;6920;50.080;8.226;2023-03-26T17:44:48;8.70;99.90
13697;DHT22;6920;50.080;8.226;2023-03-26T17:49:59;8.80;99.90
13697;DHT22;6920;50.080;8.226;2023-03-26T17:52:43;8.70;99.90
13697;DHT22;6920;50.080;8.226;2023-03-26T17:55:41;8.80;99.90
13697;DHT22;6920;50.080;8.226;2023-03-26T17:58:33;8.80;99.90
13697;DHT22;6920;50.080;8.226;2023-03-26T18:01:37;8.80;99.90
13697;DHT22;6920;50.080;8.226;2023-03-26T18:04:15;8.80;99.90
13697;DHT22;6920;50.080;8.226;2023-03-26T18:07:02;8.80;99.90
13697;DHT22;6920;50.080;8.226;2023-03-26T18:10:01;8.80;99.90
13697;DHT22;6920;50.080;8.226;2023-03-26T18:15:51;8.70;99.90
13697;DHT22;6920;50.080;8.226;2023-03-26T18:18:29;8.50;99.90
13697;DHT22;6920;50.080;8.226;2023-03-26T18:23:35;8.40;99.90
13697;DHT22;6920;50.080;8.226;2023-03-26T18:26:12;8.40;99.90
13697;DHT22;6920;50.080;8.226;2023-03-26T18:33:48;8.50;99.90
13697;DHT22;6920;50.080;8.226;2023-03-26T18:41:25;8.50;99.90
13697;DHT22;6920;50.080;8.226;2023-03-26T18:51:34;8.40;99.90
13697;DHT22;6920;50.080;8.226;2023-03-26T18:54:03;8.30;99.90
13697;DHT22;6920;50.080;8.226;2023-03-26T18:56:35;8.30;99.90
13697;DHT22;6920;50.080;8.226;2023-03-26T19:04:19;8.30;99.90
13697;DHT22;6920;50.080;8.226;2023-03-26T19:11:54;8.30;99.90
13697;DHT22;6920;50.080;8.226;2023-03-26T19:14:22;8.40;99.90
13697;DHT22;6920;50.080;8.226;2023-03-26T19:19:25;8.30;99.90
13697;DHT22;6920;50.080;8.226;2023-03-26T19:21:59;8.30;99.90
13697;DHT22;6920;50.080;8.226;2023-03-26T19:24:28;8.40;99.90
13697;DHT22;6920;50.080;8.226;2023-03-26T19:26:56;8.40;99.90
13697;DHT22;6920;50.080;8.226;2023-03-26T19:29:28;8.40;99.90
13697;DHT22;6920;50.080;8.226;2023-03-26T19:32:01;8.40;99.90
13697;DHT22;6920;50.080;8.226;2023-03-26T19:44:46;8.30;99.90
13697;DHT22;6920;50.080;8.226;2023-03-26T19:55:19;8.20;99.90
13697;DHT22;6920;50.080;8.226;2023-03-26T20:05:18;8.30;99.90
13697;DHT22;6920;50.080;8.226;2023-03-26T20:07:50;8.40;99.90
13697;DHT22;6920;50.080;8.226;2023-03-26T20:17:52;8.20;99.90
13697;DHT22;6920;50.080;8.226;2023-03-26T20:22:52;8.10;99.90
13697;DHT22;6920;50.080;8.226;2023-03-26T20:50:16;7.80;99.90
13697;DHT22;6920;50.080;8.226;2023-03-26T20:52:48;7.80;99.90
13697;DHT22;6920;50.080;8.226;2023-03-26T21:00:18;7.70;99.90
13697;DHT22;6920;50.080;8.226;2023-03-26T21:07:50;7.60;99.90
13697;DHT22;6920;50.080;8.226;2023-03-26T21:13:03;7.50;99.90
13697;DHT22;6920;50.080;8.226;2023-03-26T21:15:55;7.50;99.90
13697;DHT22;6920;50.080;8.226;2023-03-26T21:18:41;7.40;99.90